sensor_id;sensor_type;location;lat;lon;timestamp;temperature;humidity
13115;DHT22;6623;52.120;8.660;2023-02-17T00:01:54;8.80;91.20
13115;DHT22;6623;52.120;8.660;2023-02-17T00:04:20;8.80;91.20
13115;DHT22;6623;52.120;8.660;2023-02-17T00:06:45;8.80;91.30
13115;DHT22;6623;52.120;8.660;2023-02-17T00:09:11;8.80;91.30
13115;DHT22;6623;52.120;8.660;2023-02-17T00:11:36;8.80;91.30
13115;DHT22;6623;52.120;8.660;2023-02-17T00:14:02;8.80;91.30
13115;DHT22;6623;52.120;8.660;2023-02-17T00:16:27;8.90;91.40
13115;DHT22;6623;52.120;8.660;2023-02-17T00:18:59;8.90;91.40
13115;DHT22;6623;52.120;8.660;2023-02-17T00:21:28;8.90;91.40
13115;DHT22;6623;52.120;8.660;2023-02-17T00:23:56;8.90;91.40
13115;DHT22;6623;52.120;8.660;2023-02-17T00:26:25;8.90;91.40
13115;DHT22;6623;52.120;8.660;2023-02-17T00:28:50;8.90;91.40
13115;DHT22;6623;52.120;8.660;2023-02-17T00:31:18;8.90;91.50
13115;DHT22;6623;52.120;8.660;2023-02-17T00:33:44;8.90;91.50
13115;DHT22;6623;52.120;8.660;2023-02-17T00:36:12;8.90;91.50
13115;DHT22;6623;52.120;8.660;2023-02-17T00:38:39;8.90;91.50
13115;DHT22;6623;52.120;8.660;2023-02-17T00:41:04;8.90;91.50
13115;DHT22;6623;52.120;8.660;2023-02-17T00:43:30;8.90;91.60
13115;DHT22;6623;52.120;8.660;2023-02-17T00:45:56;8.90;91.60
13115;DHT22;6623;52.120;8.660;2023-02-17T00:48:22;8.90;91.60
13115;DHT22;6623;52.120;8.660;2023-02-17T00:50:50;9.00;91.60
13115;DHT22;6623;52.120;8.660;2023-02-17T00:53:16;9.10;91.70
13115;DHT22;6623;52.120;8.660;2023-02-17T00:55:41;9.00;91.60
13115;DHT22;6623;52.120;8.660;2023-02-17T00:58:07;9.00;91.60
13115;DHT22;6623;52.120;8.660;2023-02-17T01:00:32;9.00;91.70
13115;DHT22;6623;52.120;8.660;2023-02-17T01:02:58;8.90;91.70
13115;DHT22;6623;52.120;8.660;2023-02-17T01:05:24;8.90;91.70
13115;DHT22;6623;52.120;8.660;2023-02-17T01:07:49;9.00;91.70
13115;DHT22;6623;52.120;8.660;2023-02-17T01:10:15;9.00;91.80
13115;DHT22;6623;52.120;8.660;2023-02-17T01:12:40;9.00;91.80
13115;DHT22;6623;52.120;8.660;2023-02-17T01:15:06;9.00;91.70
13115;DHT22;6623;52.120;8.660;2023-02-17T01:17:32;9.00;91.80
13115;DHT22;6623;52.120;8.660;2023-02-17T01:19:58;9.00;91.80
13115;DHT22;6623;52.120;8.660;2023-02-17T01:22:23;9.00;91.80
13115;DHT22;6623;52.120;8.660;2023-02-17T01:24:49;9.00;91.80
13115;DHT22;6623;52.120;8.660;2023-02-17T01:27:14;9.00;91.80
13115;DHT22;6623;52.120;8.660;2023-02-17T01:29:40;9.10;91.80
13115;DHT22;6623;52.120;8.660;2023-02-17T01:32:05;9.10;91.80
13115;DHT22;6623;52.120;8.660;2023-02-17T01:34:31;9.00;91.80
13115;DHT22;6623;52.120;8.660;2023-02-17T01:36:57;9.10;91.90
13115;DHT22;6623;52.120;8.660;2023-02-17T01:39:22;9.70;92.30
13115;DHT22;6623;52.120;8.660;2023-02-17T01:41:48;9.10;91.90
13115;DHT22;6623;52.120;8.660;2023-02-17T01:44:19;9.10;91.90
13115;DHT22;6623;52.120;8.660;2023-02-17T01:46:53;9.10;91.90
13115;DHT22;6623;52.120;8.660;2023-02-17T01:49:39;9.10;92.00
13115;DHT22;6623;52.120;8.660;2023-02-17T01:52:10;9.00;92.00
13115;DHT22;6623;52.120;8.660;2023-02-17T01:54:53;9.10;92.00
13115;DHT22;6623;52.120;8.660;2023-02-17T01:57:22;9.10;92.00
13115;DHT22;6623;52.120;8.660;2023-02-17T01:59:49;9.10;92.00
13115;DHT22;6623;52.120;8.660;2023-02-17T02:02:15;9.10;92.00
13115;DHT22;6623;52.120;8.660;2023-02-17T02:04:42;9.10;92.10
13115;DHT22;6623;52.120;8.660;2023-02-17T02:07:20;9.10;92.10
13115;DHT22;6623;52.120;8.660;2023-02-17T02:09:50;9.10;92.10
13115;DHT22;6623;52.120;8.660;2023-02-17T02:12:29;9.10;92.10
13115;DHT22;6623;52.120;8.660;2023-02-17T02:14:57;9.20;92.10
13115;DHT22;6623;52.120;8.660;2023-02-17T02:18:01;9.20;92.10
13115;DHT22;6623;52.120;8.660;2023-02-17T02:26:27;9.20;92.10
13115;DHT22;6623;52.120;8.660;2023-02-17T02:34:28;9.20;92.20
13115;DHT22;6623;52.120;8.660;2023-02-17T02:37:34;9.20;92.20
13115;DHT22;6623;52.120;8.660;2023-02-17T02:40:06;9.20;92.20
13115;DHT22;6623;52.120;8.660;2023-02-17T02:42:33;9.20;92.20
13115;DHT22;6623;52.120;8.660;2023-02-17T02:44:59;9.20;92.20
13115;DHT22;6623;52.120;8.660;2023-02-17T02:50:11;9.30;92.20
13115;DHT22;6623;52.120;8.660;2023-02-17T02:52:56;9.20;92.20
13115;DHT22;6623;52.120;8.660;2023-02-17T03:01:15;9.30;92.30
13115;DHT22;6623;52.120;8.660;2023-02-17T03:03:54;9.30;92.20
13115;DHT22;6623;52.120;8.660;2023-02-17T03:06:52;9.30;92.20
13115;DHT22;6623;52.120;8.660;2023-02-17T03:09:25;9.20;92.20
13115;DHT22;6623;52.120;8.660;2023-02-17T03:11:55;9.30;92.30
13115;DHT22;6623;52.120;8.660;2023-02-17T03:14:21;9.30;92.20
13115;DHT22;6623;52.120;8.660;2023-02-17T03:16:48;9.30;92.20
13115;DHT22;6623;52.120;8.660;2023-02-17T03:19:16;9.30;92.20
13115;DHT22;6623;52.120;8.660;2023-02-17T03:22:06;9.30;92.30
13115;DHT22;6623;52.120;8.660;2023-02-17T03:24:34;9.30;92.30
13115;DHT22;6623;52.120;8.660;2023-02-17T03:26:59;9.40;92.30
13115;DHT22;6623;52.120;8.660;2023-02-17T03:29:25;9.30;92.30
13115;DHT22;6623;52.120;8.660;2023-02-17T03:31:50;9.30;92.30
13115;DHT22;6623;52.120;8.660;2023-02-17T03:34:16;9.30;92.30
13115;DHT22;6623;52.120;8.660;2023-02-17T03:36:41;9.30;92.30
13115;DHT22;6623;52.120;8.660;2023-02-17T03:39:07;9.40;92.40
13115;DHT22;6623;52.120;8.660;2023-02-17T03:41:32;9.30;92.30
13115;DHT22;6623;52.120;8.660;2023-02-17T03:43:58;9.30;92.30
13115;DHT22;6623;52.120;8.660;2023-02-17T03:46:24;9.40;92.40
13115;DHT22;6623;52.120;8.660;2023-02-17T03:48:49;9.40;92.40
13115;DHT22;6623;52.120;8.660;2023-02-17T03:51:18;9.40;92.40
13115;DHT22;6623;52.120;8.660;2023-02-17T03:53:45;9.40;92.50
13115;DHT22;6623;52.120;8.660;2023-02-17T03:56:12;9.40;92.50
13115;DHT22;6623;52.120;8.660;2023-02-17T03:58:38;9.40;92.50
13115;DHT22;6623;52.120;8.660;2023-02-17T04:01:04;9.40;92.50
13115;DHT22;6623;52.120;8.660;2023-02-17T04:03:30;9.40;92.50
13115;DHT22;6623;52.120;8.660;2023-02-17T04:05:56;9.40;92.50
13115;DHT22;6623;52.120;8.660;2023-02-17T04:08:22;9.40;92.50
13115;DHT22;6623;52.120;8.660;2023-02-17T04:10:56;9.40;92.50
13115;DHT22;6623;52.120;8.660;2023-02-17T04:13:22;9.40;92.60
13115;DHT22;6623;52.120;8.660;2023-02-17T04:15:48;9.50;92.60
13115;DHT22;6623;52.120;8.660;2023-02-17T04:18:14;9.50;92.60
13115;DHT22;6623;52.120;8.660;2023-02-17T04:20:40;9.50;92.60
13115;DHT22;6623;52.120;8.660;2023-02-17T04:23:06;9.50;92.60
13115;DHT22;6623;52.120;8.660;2023-02-17T04:25:36;9.50;92.60
13115;DHT22;6623;52.120;8.660;2023-02-17T04:28:03;9.60;92.60
13115;DHT22;6623;52.120;8.660;2023-02-17T04:30:29;9.60;92.60
13115;DHT22;6623;52.120;8.660;2023-02-17T04:32:55;9.60;92.50
13115;DHT22;6623;52.120;8.660;2023-02-17T04:35:20;9.60;92.50
13115;DHT22;6623;52.120;8.660;2023-02-17T04:37:46;9.60;92.50
13115;DHT22;6623;52.120;8.660;2023-02-17T04:40:11;9.70;92.50
13115;DHT22;6623;52.120;8.660;2023-02-17T04:42:37;9.70;92.50
13115;DHT22;6623;52.120;8.660;2023-02-17T04:45:05;9.70;92.40
13115;DHT22;6623;52.120;8.660;2023-02-17T04:47:31;9.70;92.40
13115;DHT22;6623;52.120;8.660;2023-02-17T04:49:56;9.70;92.40
13115;DHT22;6623;52.120;8.660;2023-02-17T04:52:22;9.70;92.40
13115;DHT22;6623;52.120;8.660;2023-02-17T04:54:48;9.70;92.30
13115;DHT22;6623;52.120;8.660;2023-02-17T04:57:13;9.80;92.30
13115;DHT22;6623;52.120;8.660;2023-02-17T04:59:39;9.70;92.30
13115;DHT22;6623;52.120;8.660;2023-02-17T05:02:04;9.70;92.30
13115;DHT22;6623;52.120;8.660;2023-02-17T05:04:30;9.80;92.30
13115;DHT22;6623;52.120;8.660;2023-02-17T05:06:55;9.80;92.20
13115;DHT22;6623;52.120;8.660;2023-02-17T05:09:21;9.80;92.20
13115;DHT22;6623;52.120;8.660;2023-02-17T05:11:46;9.80;92.20
13115;DHT22;6623;52.120;8.660;2023-02-17T05:14:12;9.80;92.10
13115;DHT22;6623;52.120;8.660;2023-02-17T05:16:37;9.80;92.10
13115;DHT22;6623;52.120;8.660;2023-02-17T05:19:03;9.80;92.10
13115;DHT22;6623;52.120;8.660;2023-02-17T05:21:29;9.80;92.10
13115;DHT22;6623;52.120;8.660;2023-02-17T05:23:54;9.80;92.10
13115;DHT22;6623;52.120;8.660;2023-02-17T05:26:20;9.80;92.00
13115;DHT22;6623;52.120;8.660;2023-02-17T05:28:45;9.90;92.00
13115;DHT22;6623;52.120;8.660;2023-02-17T05:31:11;9.90;92.00
13115;DHT22;6623;52.120;8.660;2023-02-17T05:33:37;9.90;92.00
13115;DHT22;6623;52.120;8.660;2023-02-17T05:36:05;9.80;91.90
13115;DHT22;6623;52.120;8.660;2023-02-17T05:38:31;9.90;92.20
13115;DHT22;6623;52.120;8.660;2023-02-17T05:40:57;9.90;91.80
13115;DHT22;6623;52.120;8.660;2023-02-17T05:43:23;9.90;91.80
13115;DHT22;6623;52.120;8.660;2023-02-17T05:45:49;9.80;91.70
13115;DHT22;6623;52.120;8.660;2023-02-17T05:48:14;9.90;91.70
13115;DHT22;6623;52.120;8.660;2023-02-17T05:50:40;9.90;91.70
13115;DHT22;6623;52.120;8.660;2023-02-17T05:53:05;9.90;91.60
13115;DHT22;6623;52.120;8.660;2023-02-17T05:55:31;9.90;91.60
13115;DHT22;6623;52.120;8.660;2023-02-17T05:57:56;9.90;91.60
13115;DHT22;6623;52.120;8.660;2023-02-17T06:00:22;9.90;91.50
13115;DHT22;6623;52.120;8.660;2023-02-17T06:02:48;10.00;91.50
13115;DHT22;6623;52.120;8.660;2023-02-17T06:05:13;9.90;91.50
13115;DHT22;6623;52.120;8.660;2023-02-17T06:07:39;10.00;91.50
13115;DHT22;6623;52.120;8.660;2023-02-17T06:10:05;10.00;91.40
13115;DHT22;6623;52.120;8.660;2023-02-17T06:12:31;9.90;91.40
13115;DHT22;6623;52.120;8.660;2023-02-17T06:14:56;10.10;91.40
13115;DHT22;6623;52.120;8.660;2023-02-17T06:17:22;9.90;91.30
13115;DHT22;6623;52.120;8.660;2023-02-17T06:19:47;10.00;91.30
13115;DHT22;6623;52.120;8.660;2023-02-17T06:22:13;10.00;91.30
13115;DHT22;6623;52.120;8.660;2023-02-17T06:24:38;10.00;91.30
13115;DHT22;6623;52.120;8.660;2023-02-17T06:27:04;10.00;91.30
13115;DHT22;6623;52.120;8.660;2023-02-17T06:29:29;10.00;91.20
13115;DHT22;6623;52.120;8.660;2023-02-17T06:31:55;9.90;91.20
13115;DHT22;6623;52.120;8.660;2023-02-17T06:34:20;10.00;91.20
13115;DHT22;6623;52.120;8.660;2023-02-17T06:36:46;10.00;91.20
13115;DHT22;6623;52.120;8.660;2023-02-17T06:39:11;10.00;91.10
13115;DHT22;6623;52.120;8.660;2023-02-17T06:41:37;10.10;91.10
13115;DHT22;6623;52.120;8.660;2023-02-17T06:44:03;10.10;91.10
13115;DHT22;6623;52.120;8.660;2023-02-17T06:46:28;10.10;91.10
13115;DHT22;6623;52.120;8.660;2023-02-17T06:48:54;10.10;91.10
13115;DHT22;6623;52.120;8.660;2023-02-17T06:51:20;10.10;91.00
13115;DHT22;6623;52.120;8.660;2023-02-17T06:53:45;10.20;91.00
13115;DHT22;6623;52.120;8.660;2023-02-17T06:56:11;10.10;91.00
13115;DHT22;6623;52.120;8.660;2023-02-17T06:58:37;10.10;90.90
13115;DHT22;6623;52.120;8.660;2023-02-17T07:01:02;10.10;90.90
13115;DHT22;6623;52.120;8.660;2023-02-17T07:03:29;10.10;90.80
13115;DHT22;6623;52.120;8.660;2023-02-17T07:05:58;10.20;90.90
13115;DHT22;6623;52.120;8.660;2023-02-17T07:08:24;10.10;90.90
13115;DHT22;6623;52.120;8.660;2023-02-17T07:10:49;10.20;90.90
13115;DHT22;6623;52.120;8.660;2023-02-17T07:13:15;10.20;90.90
13115;DHT22;6623;52.120;8.660;2023-02-17T07:15:40;10.20;90.80
13115;DHT22;6623;52.120;8.660;2023-02-17T07:18:06;10.30;90.80
13115;DHT22;6623;52.120;8.660;2023-02-17T07:20:32;10.20;90.80
13115;DHT22;6623;52.120;8.660;2023-02-17T07:22:59;10.20;90.80
13115;DHT22;6623;52.120;8.660;2023-02-17T07:25:25;10.20;90.80
13115;DHT22;6623;52.120;8.660;2023-02-17T07:27:51;10.20;90.80
13115;DHT22;6623;52.120;8.660;2023-02-17T07:30:16;10.30;90.70
13115;DHT22;6623;52.120;8.660;2023-02-17T07:32:42;10.30;90.70
13115;DHT22;6623;52.120;8.660;2023-02-17T07:35:08;10.20;90.70
13115;DHT22;6623;52.120;8.660;2023-02-17T07:37:34;10.30;90.70
13115;DHT22;6623;52.120;8.660;2023-02-17T07:40:00;10.30;90.60
13115;DHT22;6623;52.120;8.660;2023-02-17T07:42:26;10.30;90.60
13115;DHT22;6623;52.120;8.660;2023-02-17T07:44:52;10.20;90.60
13115;DHT22;6623;52.120;8.660;2023-02-17T07:47:18;10.30;90.60
13115;DHT22;6623;52.120;8.660;2023-02-17T07:49:43;10.30;90.50
13115;DHT22;6623;52.120;8.660;2023-02-17T07:52:09;10.30;90.50
13115;DHT22;6623;52.120;8.660;2023-02-17T07:54:34;10.40;90.60
13115;DHT22;6623;52.120;8.660;2023-02-17T07:57:01;10.30;90.50
13115;DHT22;6623;52.120;8.660;2023-02-17T07:59:26;10.40;90.50
13115;DHT22;6623;52.120;8.660;2023-02-17T08:01:52;10.40;90.50
13115;DHT22;6623;52.120;8.660;2023-02-17T08:04:17;10.40;90.50
13115;DHT22;6623;52.120;8.660;2023-02-17T08:06:43;10.40;90.50
13115;DHT22;6623;52.120;8.660;2023-02-17T08:09:10;10.40;90.50
13115;DHT22;6623;52.120;8.660;2023-02-17T08:11:54;10.30;90.50
13115;DHT22;6623;52.120;8.660;2023-02-17T08:14:38;10.30;90.50
13115;DHT22;6623;52.120;8.660;2023-02-17T08:17:04;10.30;90.60
13115;DHT22;6623;52.120;8.660;2023-02-17T08:19:30;10.30;90.60
13115;DHT22;6623;52.120;8.660;2023-02-17T08:21:56;10.40;90.70
13115;DHT22;6623;52.120;8.660;2023-02-17T08:24:22;10.40;90.70
13115;DHT22;6623;52.120;8.660;2023-02-17T08:26:48;10.40;90.60
13115;DHT22;6623;52.120;8.660;2023-02-17T08:29:14;10.40;90.60
13115;DHT22;6623;52.120;8.660;2023-02-17T08:31:40;10.40;90.60
13115;DHT22;6623;52.120;8.660;2023-02-17T08:34:08;10.40;90.60
13115;DHT22;6623;52.120;8.660;2023-02-17T08:36:35;10.40;90.70
13115;DHT22;6623;52.120;8.660;2023-02-17T08:39:06;10.40;90.70
13115;DHT22;6623;52.120;8.660;2023-02-17T08:41:36;10.40;90.70
13115;DHT22;6623;52.120;8.660;2023-02-17T08:44:07;10.40;90.70
13115;DHT22;6623;52.120;8.660;2023-02-17T08:46:33;10.40;90.70
13115;DHT22;6623;52.120;8.660;2023-02-17T08:48:59;10.40;90.70
13115;DHT22;6623;52.120;8.660;2023-02-17T08:51:25;10.40;90.80
13115;DHT22;6623;52.120;8.660;2023-02-17T08:53:53;10.40;90.90
13115;DHT22;6623;52.120;8.660;2023-02-17T08:56:20;10.40;90.90
13115;DHT22;6623;52.120;8.660;2023-02-17T08:58:46;10.50;91.00
13115;DHT22;6623;52.120;8.660;2023-02-17T09:01:14;10.50;91.00
13115;DHT22;6623;52.120;8.660;2023-02-17T09:03:40;10.60;91.00
13115;DHT22;6623;52.120;8.660;2023-02-17T09:06:07;10.50;91.00
13115;DHT22;6623;52.120;8.660;2023-02-17T09:08:33;10.50;91.00
13115;DHT22;6623;52.120;8.660;2023-02-17T09:11:14;10.50;91.00
13115;DHT22;6623;52.120;8.660;2023-02-17T09:13:42;10.50;91.00
13115;DHT22;6623;52.120;8.660;2023-02-17T09:16:07;10.60;91.10
13115;DHT22;6623;52.120;8.660;2023-02-17T09:18:33;10.60;91.10
13115;DHT22;6623;52.120;8.660;2023-02-17T09:21:07;10.50;91.00
13115;DHT22;6623;52.120;8.660;2023-02-17T09:23:33;10.60;91.10
13115;DHT22;6623;52.120;8.660;2023-02-17T09:26:04;10.60;91.10
13115;DHT22;6623;52.120;8.660;2023-02-17T09:28:31;10.60;91.10
13115;DHT22;6623;52.120;8.660;2023-02-17T09:30:57;10.60;91.00
13115;DHT22;6623;52.120;8.660;2023-02-17T09:33:22;10.60;91.00
13115;DHT22;6623;52.120;8.660;2023-02-17T09:35:48;10.60;91.10
13115;DHT22;6623;52.120;8.660;2023-02-17T09:38:15;10.60;91.10
13115;DHT22;6623;52.120;8.660;2023-02-17T09:40:44;10.70;91.10
13115;DHT22;6623;52.120;8.660;2023-02-17T09:43:19;10.60;91.10
13115;DHT22;6623;52.120;8.660;2023-02-17T09:45:50;10.70;91.10
13115;DHT22;6623;52.120;8.660;2023-02-17T09:48:19;10.70;91.10
13115;DHT22;6623;52.120;8.660;2023-02-17T09:50:55;10.70;91.10
13115;DHT22;6623;52.120;8.660;2023-02-17T09:53:42;10.70;91.10
13115;DHT22;6623;52.120;8.660;2023-02-17T09:56:16;10.70;91.10
13115;DHT22;6623;52.120;8.660;2023-02-17T09:58:44;10.70;91.10
13115;DHT22;6623;52.120;8.660;2023-02-17T10:01:17;10.80;91.10
13115;DHT22;6623;52.120;8.660;2023-02-17T10:03:45;10.80;91.10
13115;DHT22;6623;52.120;8.660;2023-02-17T10:11:33;10.80;91.10
13115;DHT22;6623;52.120;8.660;2023-02-17T10:14:09;9.80;90.80
13115;DHT22;6623;52.120;8.660;2023-02-17T10:16:40;10.80;91.00
13115;DHT22;6623;52.120;8.660;2023-02-17T10:19:30;10.90;91.00
13115;DHT22;6623;52.120;8.660;2023-02-17T10:22:05;10.90;91.00
13115;DHT22;6623;52.120;8.660;2023-02-17T10:24:32;10.90;91.00
13115;DHT22;6623;52.120;8.660;2023-02-17T10:32:24;11.00;90.90
13115;DHT22;6623;52.120;8.660;2023-02-17T10:35:13;11.00;90.90
13115;DHT22;6623;52.120;8.660;2023-02-17T10:40:25;11.10;90.70
13115;DHT22;6623;52.120;8.660;2023-02-17T10:42:55;11.10;90.70
13115;DHT22;6623;52.120;8.660;2023-02-17T10:45:28;11.10;90.60
13115;DHT22;6623;52.120;8.660;2023-02-17T10:48:01;11.10;90.50
13115;DHT22;6623;52.120;8.660;2023-02-17T10:50:30;11.20;90.40
13115;DHT22;6623;52.120;8.660;2023-02-17T10:52:56;11.20;90.40
13115;DHT22;6623;52.120;8.660;2023-02-17T10:55:36;11.30;90.50
13115;DHT22;6623;52.120;8.660;2023-02-17T10:58:13;11.30;90.30
13115;DHT22;6623;52.120;8.660;2023-02-17T11:00:41;11.40;90.30
13115;DHT22;6623;52.120;8.660;2023-02-17T11:03:18;11.50;90.30
13115;DHT22;6623;52.120;8.660;2023-02-17T11:05:51;11.60;90.20
13115;DHT22;6623;52.120;8.660;2023-02-17T11:08:33;11.70;89.90
13115;DHT22;6623;52.120;8.660;2023-02-17T11:11:11;11.70;89.40
13115;DHT22;6623;52.120;8.660;2023-02-17T11:19:04;11.90;88.70
13115;DHT22;6623;52.120;8.660;2023-02-17T11:21:31;11.90;88.30
13115;DHT22;6623;52.120;8.660;2023-02-17T11:24:00;11.90;88.10
13115;DHT22;6623;52.120;8.660;2023-02-17T11:26:29;12.00;87.70
13115;DHT22;6623;52.120;8.660;2023-02-17T11:29:05;12.00;87.60
13115;DHT22;6623;52.120;8.660;2023-02-17T11:31:30;12.10;87.60
13115;DHT22;6623;52.120;8.660;2023-02-17T11:33:56;12.10;87.20
13115;DHT22;6623;52.120;8.660;2023-02-17T11:36:32;12.10;87.10
13115;DHT22;6623;52.120;8.660;2023-02-17T11:38:58;12.20;86.60
13115;DHT22;6623;52.120;8.660;2023-02-17T11:41:25;12.20;86.20
13115;DHT22;6623;52.120;8.660;2023-02-17T11:43:53;13.10;86.70
13115;DHT22;6623;52.120;8.660;2023-02-17T11:46:51;12.20;85.90
13115;DHT22;6623;52.120;8.660;2023-02-17T11:55:18;12.30;85.10
13115;DHT22;6623;52.120;8.660;2023-02-17T11:58:02;12.40;85.10
13115;DHT22;6623;52.120;8.660;2023-02-17T12:00:45;12.40;85.10
13115;DHT22;6623;52.120;8.660;2023-02-17T12:06:10;12.50;84.60
13115;DHT22;6623;52.120;8.660;2023-02-17T12:08:56;12.50;84.20
13115;DHT22;6623;52.120;8.660;2023-02-17T12:11:55;12.50;84.00
13115;DHT22;6623;52.120;8.660;2023-02-17T12:14:43;12.50;83.40
13115;DHT22;6623;52.120;8.660;2023-02-17T12:22:52;12.40;82.90
13115;DHT22;6623;52.120;8.660;2023-02-17T12:25:32;12.50;83.30
13115;DHT22;6623;52.120;8.660;2023-02-17T12:30:26;12.50;83.30
13115;DHT22;6623;52.120;8.660;2023-02-17T12:33:29;12.60;83.20
13115;DHT22;6623;52.120;8.660;2023-02-17T12:36:02;12.60;83.10
13115;DHT22;6623;52.120;8.660;2023-02-17T12:38:34;12.60;82.90
13115;DHT22;6623;52.120;8.660;2023-02-17T12:41:15;12.50;82.20
13115;DHT22;6623;52.120;8.660;2023-02-17T12:44:13;12.50;82.20
13115;DHT22;6623;52.120;8.660;2023-02-17T12:46:43;12.50;82.10
13115;DHT22;6623;52.120;8.660;2023-02-17T12:49:20;12.40;82.20
13115;DHT22;6623;52.120;8.660;2023-02-17T12:51:51;12.40;82.20
13115;DHT22;6623;52.120;8.660;2023-02-17T12:59:37;12.40;82.20
13115;DHT22;6623;52.120;8.660;2023-02-17T13:02:14;12.80;82.50
13115;DHT22;6623;52.120;8.660;2023-02-17T13:04:42;12.40;82.30
13115;DHT22;6623;52.120;8.660;2023-02-17T13:09:54;12.40;82.40
13115;DHT22;6623;52.120;8.660;2023-02-17T13:17:31;12.30;82.40
13115;DHT22;6623;52.120;8.660;2023-02-17T13:20:22;12.30;82.40
13115;DHT22;6623;52.120;8.660;2023-02-17T13:22:48;12.30;82.60
13115;DHT22;6623;52.120;8.660;2023-02-17T13:25:29;12.30;82.50
13115;DHT22;6623;52.120;8.660;2023-02-17T13:27:59;12.30;82.70
13115;DHT22;6623;52.120;8.660;2023-02-17T13:30:28;12.00;82.60
13115;DHT22;6623;52.120;8.660;2023-02-17T13:35:49;12.30;83.00
13115;DHT22;6623;52.120;8.660;2023-02-17T13:38:31;12.30;83.20
13115;DHT22;6623;52.120;8.660;2023-02-17T13:41:04;12.20;83.40
13115;DHT22;6623;52.120;8.660;2023-02-17T13:43:39;12.20;83.70
13115;DHT22;6623;52.120;8.660;2023-02-17T13:46:05;12.20;84.30
13115;DHT22;6623;52.120;8.660;2023-02-17T13:48:34;12.10;84.50
13115;DHT22;6623;52.120;8.660;2023-02-17T13:51:04;12.10;84.80
13115;DHT22;6623;52.120;8.660;2023-02-17T13:53:42;12.10;85.30
13115;DHT22;6623;52.120;8.660;2023-02-17T13:58:48;12.10;85.70
13115;DHT22;6623;52.120;8.660;2023-02-17T14:01:16;12.00;86.00
13115;DHT22;6623;52.120;8.660;2023-02-17T14:03:50;12.00;86.20
13115;DHT22;6623;52.120;8.660;2023-02-17T14:06:32;12.00;86.50
13115;DHT22;6623;52.120;8.660;2023-02-17T14:12:18;12.00;87.10
13115;DHT22;6623;52.120;8.660;2023-02-17T14:14:48;12.00;87.30
13115;DHT22;6623;52.120;8.660;2023-02-17T14:17:30;12.00;87.50
13115;DHT22;6623;52.120;8.660;2023-02-17T14:19:59;12.00;87.60
13115;DHT22;6623;52.120;8.660;2023-02-17T14:22:33;12.00;87.60
13115;DHT22;6623;52.120;8.660;2023-02-17T14:25:02;12.00;87.70
13115;DHT22;6623;52.120;8.660;2023-02-17T14:27:28;12.00;87.70
13115;DHT22;6623;52.120;8.660;2023-02-17T14:30:05;12.00;87.70
13115;DHT22;6623;52.120;8.660;2023-02-17T14:32:33;12.00;87.80
13115;DHT22;6623;52.120;8.660;2023-02-17T14:37:38;11.90;87.80
13115;DHT22;6623;52.120;8.660;2023-02-17T14:40:05;11.80;87.80
13115;DHT22;6623;52.120;8.660;2023-02-17T14:42:31;11.90;88.00
13115;DHT22;6623;52.120;8.660;2023-02-17T14:44:56;11.90;88.20
13115;DHT22;6623;52.120;8.660;2023-02-17T14:47:22;11.70;88.00
13115;DHT22;6623;52.120;8.660;2023-02-17T14:49:48;11.80;88.20
13115;DHT22;6623;52.120;8.660;2023-02-17T14:52:19;11.80;88.40
13115;DHT22;6623;52.120;8.660;2023-02-17T14:54:45;11.80;88.60
13115;DHT22;6623;52.120;8.660;2023-02-17T14:57:12;11.70;88.60
13115;DHT22;6623;52.120;8.660;2023-02-17T14:59:39;11.70;88.70
13115;DHT22;6623;52.120;8.660;2023-02-17T15:02:24;11.60;88.70
13115;DHT22;6623;52.120;8.660;2023-02-17T15:04:50;11.50;88.80
13115;DHT22;6623;52.120;8.660;2023-02-17T15:07:17;11.60;88.90
13115;DHT22;6623;52.120;8.660;2023-02-17T15:09:44;11.60;88.90
13115;DHT22;6623;52.120;8.660;2023-02-17T15:12:16;11.60;88.90
13115;DHT22;6623;52.120;8.660;2023-02-17T15:14:48;11.60;88.90
13115;DHT22;6623;52.120;8.660;2023-02-17T15:17:14;13.40;89.90
13115;DHT22;6623;52.120;8.660;2023-02-17T15:19:40;11.50;88.70
13115;DHT22;6623;52.120;8.660;2023-02-17T15:22:10;11.70;88.70
13115;DHT22;6623;52.120;8.660;2023-02-17T15:24:37;11.70;88.60
13115;DHT22;6623;52.120;8.660;2023-02-17T15:27:04;11.70;88.50
13115;DHT22;6623;52.120;8.660;2023-02-17T15:29:30;11.70;88.40
13115;DHT22;6623;52.120;8.660;2023-02-17T15:31:58;11.70;88.30
13115;DHT22;6623;52.120;8.660;2023-02-17T15:34:32;11.70;88.20
13115;DHT22;6623;52.120;8.660;2023-02-17T15:36:58;12.10;88.40
13115;DHT22;6623;52.120;8.660;2023-02-17T15:39:24;11.70;88.10
13115;DHT22;6623;52.120;8.660;2023-02-17T15:42:02;11.70;88.20
13115;DHT22;6623;52.120;8.660;2023-02-17T15:44:47;11.50;87.90
13115;DHT22;6623;52.120;8.660;2023-02-17T15:47:17;12.30;88.20
13115;DHT22;6623;52.120;8.660;2023-02-17T15:49:46;11.70;87.70
13115;DHT22;6623;52.120;8.660;2023-02-17T15:52:14;11.70;87.80
13115;DHT22;6623;52.120;8.660;2023-02-17T15:54:41;11.70;87.80
13115;DHT22;6623;52.120;8.660;2023-02-17T15:57:07;11.70;87.80
13115;DHT22;6623;52.120;8.660;2023-02-17T15:59:36;11.70;87.70
13115;DHT22;6623;52.120;8.660;2023-02-17T16:02:09;11.70;87.70
13115;DHT22;6623;52.120;8.660;2023-02-17T16:04:40;11.70;87.70
13115;DHT22;6623;52.120;8.660;2023-02-17T16:07:05;11.70;87.60
13115;DHT22;6623;52.120;8.660;2023-02-17T16:09:31;11.70;87.60
13115;DHT22;6623;52.120;8.660;2023-02-17T16:11:56;11.70;87.50
13115;DHT22;6623;52.120;8.660;2023-02-17T16:14:33;11.70;87.50
13115;DHT22;6623;52.120;8.660;2023-02-17T16:17:00;11.60;87.40
13115;DHT22;6623;52.120;8.660;2023-02-17T16:19:26;11.60;87.50
13115;DHT22;6623;52.120;8.660;2023-02-17T16:21:55;11.60;87.50
13115;DHT22;6623;52.120;8.660;2023-02-17T16:24:21;11.60;87.50
13115;DHT22;6623;52.120;8.660;2023-02-17T16:26:46;11.60;87.60
13115;DHT22;6623;52.120;8.660;2023-02-17T16:29:17;11.60;87.60
13115;DHT22;6623;52.120;8.660;2023-02-17T16:31:44;11.60;87.60
13115;DHT22;6623;52.120;8.660;2023-02-17T16:34:18;11.60;87.60
13115;DHT22;6623;52.120;8.660;2023-02-17T16:36:48;11.60;87.60
13115;DHT22;6623;52.120;8.660;2023-02-17T16:39:16;11.60;87.60
13115;DHT22;6623;52.120;8.660;2023-02-17T16:41:42;11.60;87.50
13115;DHT22;6623;52.120;8.660;2023-02-17T16:44:16;11.50;87.30
13115;DHT22;6623;52.120;8.660;2023-02-17T16:46:50;11.60;87.30
13115;DHT22;6623;52.120;8.660;2023-02-17T16:51:47;11.60;87.30
13115;DHT22;6623;52.120;8.660;2023-02-17T16:54:13;11.50;87.20
13115;DHT22;6623;52.120;8.660;2023-02-17T16:56:42;11.60;87.20
13115;DHT22;6623;52.120;8.660;2023-02-17T16:59:16;12.10;87.40
13115;DHT22;6623;52.120;8.660;2023-02-17T17:01:42;11.70;87.00
13115;DHT22;6623;52.120;8.660;2023-02-17T17:04:08;11.60;87.00
13115;DHT22;6623;52.120;8.660;2023-02-17T17:06:34;11.60;87.00
13115;DHT22;6623;52.120;8.660;2023-02-17T17:09:01;11.50;86.90
13115;DHT22;6623;52.120;8.660;2023-02-17T17:11:27;11.60;86.90
13115;DHT22;6623;52.120;8.660;2023-02-17T17:13:53;11.60;86.70
13115;DHT22;6623;52.120;8.660;2023-02-17T17:16:29;11.60;86.60
13115;DHT22;6623;52.120;8.660;2023-02-17T17:18:56;11.60;86.30
13115;DHT22;6623;52.120;8.660;2023-02-17T17:21:22;11.60;86.20
13115;DHT22;6623;52.120;8.660;2023-02-17T17:23:47;11.60;86.70
13115;DHT22;6623;52.120;8.660;2023-02-17T17:28:50;11.60;85.90
13115;DHT22;6623;52.120;8.660;2023-02-17T17:31:16;11.60;85.80